METAR Data
IDs: Format: Raw Decoded Include TAF

Data at: 1733 UTC 16 Oct 2021

WMKB 161700Z 05003KT 020V080 8000 FEW024 26/23 Q1009 NOSIG